Weather observations for the past three days for
Sarasota / Bradenton, Sarasota-Bradenton International Airport
Metric (Imperial)
Date Time (edt) Wind (kph) Vis. (km) Weather Sky Cond. Temperature (ºC) Relative Humidity Wind Chill (°C) Heat Index (°C) Pressure Precipitation (cm)
Air Dwpt 6 hour altimeter (cm) sea level (mb) 1 hr 3 hr 6 hr
Max. Min.
10 11:53 SW 15 16.09 Mostly Cloudy BKN060 BKN080 30 23.3 67% 34 76.3 1017.2
10 10:53 SW 13 16.09 A Few Clouds FEW050 30 22.8 65% 34 76.28 1017.0
10 09:53 SE 11 16.09 Partly Cloudy FEW014 SCT020 28.9 23.9 74% 33 76.25 1016.4
10 08:53 Vrbl 6 16.09 Mostly Cloudy BKN007 26.7 24.4 87% 30 76.25 1016.5
10 07:53 Calm 16.09 Fair CLR 25.6 23.9 26.7 25 90% 27 76.2 1015.7
10 06:53 SE 6 16.09 A Few Clouds FEW006 25 23.9 94% 26 76.1 1014.3
10 05:53 SE 11 16.09 Fair CLR 25.6 23.3 87% 27 76.02 1013.3
10 04:53 SE 9 16.09 Partly Cloudy FEW065 SCT090 25.6 22.8 85% 27 76.02 1013.5
10 03:53 E 7 16.09 Partly Cloudy FEW017 SCT070 25.6 23.3 87% 27 76.05 1013.6
10 02:53 E 7 16.09 Overcast OVC011 26.1 23.9 88% 28 76.05 1013.9
10 01:53 E 6 16.09 Mostly Cloudy BKN012 BKN020 26.7 24.4 27.8 26.7 87% 30 76.1 1014.5
10 00:53 S 6 16.09 Overcast FEW070 OVC085 26.7 24.4 87% 30 76.15 1015.0
09 23:53 SW 7 16.09 Fair CLR 26.7 23.9 85% 29 76.15 1015.0
09 22:53 W 9 16.09 A Few Clouds FEW110 26.7 23.9 85% 29 76.12 1014.7
09 21:53 SW 11 16.09 Fair CLR 27.2 23.3 79% 30 76.07 1014.1
09 20:53 SW 11 16.09 A Few Clouds FEW075 27.8 22.8 74% 31 76.02 1013.5
09 19:53 SW 17 16.09 Mostly Cloudy FEW075 SCT090 BKN110 27.8 22.8 31.1 27.8 74% 31 75.97 1012.8
09 18:53 SW 17 16.09 Fair CLR 28.9 22.2 67% 32 75.95 1012.5
09 17:53 SW 22 16.09 Fair CLR 29.4 22.2 65% 33 75.92 1012.1
09 16:53 S 24 16.09 Fair CLR 29.4 22.8 68% 33 75.92 1012.0
09 15:53 S 24 16.09 A Few Clouds FEW100 30.6 23.3 65% 35 75.97 1012.6
09 14:53 S 26 16.09 Fair CLR 30.6 22.8 63% 35 76.02 1013.4
09 13:53 S 26 16.09 Fair CLR 30.6 21.7 31.7 25 59% 34 76.02 1013.6
09 12:53 S 22 16.09 Fair CLR 31.1 21.1 55% 34 76.05 1013.7
09 11:53 SW 13 16.09 Fair CLR 31.1 21.1 55% 34 76.07 1014.1
09 10:53 S 9 16.09 Mostly Cloudy BKN090 BKN100 30.6 20.6 55% 33 76.1 1014.4
09 09:53 SE 9 16.09 Fair CLR 28.9 21.1 63% 31 76.07 1014.0
09 08:53 E 7 16.09 Overcast OVC090 26.7 22.2 76% 29 76.05 1013.6
09 07:53 E 7 16.09 Partly Cloudy SCT075 25 22.2 25.6 23.3 85% 26 76.02 1013.3
09 06:53 E 6 16.09 Partly Cloudy SCT080 23.9 22.2 90% 23 75.97 1012.9
09 05:53 Calm 16.09 Fair CLR 23.9 22.2 90% 23 75.97 1012.9
09 04:53 SE 6 16.09 Fair CLR 23.9 22.2 90% 23 76 1012.9
09 03:53 E 6 16.09 Fair CLR 24.4 22.2 88% 25 76 1013.0
09 02:53 E 7 16.09 Fair CLR 25 22.2 85% 26 76.05 1013.6
09 01:53 NE 9 16.09 A Few Clouds FEW017 25.6 22.8 28.3 25.6 85% 27 76.07 1014.1
09 00:53 N 7 16.09 Fair CLR 26.1 22.8 82% 28 76.1 1014.4
08 23:53 N 11 16.09 Fair CLR 26.7 22.8 79% 29 76.12 1014.8
08 22:53 NW 17 16.09 Fair CLR 26.7 22.8 79% 29 76.12 1014.8
08 21:53 NW 19 16.09 Fair CLR 26.7 22.2 76% 29 76.07 1014.2
08 20:53 W 19 16.09 Fair CLR 27.8 21.1 67% 30 76.02 1013.5
08 19:53 NW 20 16.09 Fair CLR 28.3 21.1 31.1 28.3 65% 31 75.97 1012.8
08 18:53 W 19 16.09 Fair CLR 30 20 55% 32 75.95 1012.4
08 17:53 W 17 16.09 Fair CLR 30 20.6 57% 32 75.92 1012.2
08 16:53 W 17 16.09 Fair CLR 30 22.2 63% 33 75.95 1012.3
08 15:53 W 17 16.09 Fair CLR 30 22.8 65% 34 76 1013.0
08 14:53 W 20 16.09 Fair CLR 30.6 23.3 65% 35 76.05 1013.9
08 13:53 W 22 16.09 Fair CLR 30 23.9 30.6 25.6 70% 35 76.12 1014.9
08 12:53 W 19 16.09 Fair CLR 30 23.3 67% 34 76.17 1015.4
08 11:53 W 17 16.09 A Few Clouds FEW029 29.4 23.3 70% 34 76.23 1016.1
08 10:53 W 13 16.09 Fair CLR 28.9 23.3 72% 33 76.25 1016.4
08 09:53 Vrbl 9 16.09 A Few Clouds FEW024 27.2 22.8 77% 30 76.25 1016.5
08 08:53 NW 9 16.09 A Few Clouds FEW025 26.7 22.8 79% 29 76.23 1016.2
08 07:53 W 9 16.09 Fair CLR 25.6 23.9 25.6 23.3 90% 27 76.17 1015.4
08 06:53 NW 6 16.09 Fair CLR 23.9 22.2 90% 23 76.1 1014.6
08 05:53 NW 6 16.09 Fair CLR 23.9 21.7 88% 24 76.07 1014.1
08 04:53 Calm 16.09 Fair CLR 23.9 21.7 88% 24 76.05 1013.8
08 03:53 NW 6 16.09 Fair CLR 23.9 21.1 84% 24 76.05 1013.8
08 02:53 W 13 16.09 Fair CLR 25 21.1 79% 26 76.07 1014.0
08 01:53 W 11 16.09 Fair CLR 25 22.2 26.7 25 85% 26 76.1 1014.5
08 00:53 W 11 16.09 Fair CLR 25 22.2 85% 26 76.12 1014.8
07 23:53 W 9 16.09 Fair CLR 25.6 22.8 85% 27 76.15 1015.1
07 22:53 W 9 16.09 Fair CLR 25.6 22.8 85% 27 76.15 1015.0
07 21:53 W 9 16.09 Fair CLR 25.6 22.8 85% 27 76.12 1014.9
07 20:53 W 11 16.09 Fair CLR 25.6 22.2 82% 27 76.12 1014.7
07 19:53 SW 11 16.09 Fair CLR 26.7 21.7 28.9 26.7 74% 29 76.1 1014.5
07 18:53 W 13 16.09 Fair CLR 27.8 21.1 67% 30 76.1 1014.5
07 17:53 SW 13 16.09 Fair CLR 28.3 22.2 70% 31 76.1 1014.5
07 16:53 SW 13 16.09 Fair CLR 27.8 22.2 72% 30 76.12 1014.6
07 15:53 W 19 16.09 Fair CLR 28.3 22.2 70% 31 76.15 1015.0
07 14:53 SW 17 16.09 Fair CLR 28.3 22.2 70% 31 76.2 1015.7
07 13:53 SW 17 G 31 16.09 Fair CLR 28.3 22.2 28.9 22.8 70% 31 76.25 1016.5
07 12:53 SW 19 16.09 Fair CLR 27.8 22.2 72% 30 76.28 1016.8
Date Time (edt) Wind (kph) Vis. (km) Weather Sky Cond. Air Dwpt Max. Min. Relative Humidity Wind Chill (°C) Heat Index (°C) altimeter (cm) sea level (mb) 1 hr 3 hr 6 hr
6 hour
Temperature (ºC) Pressure Precipitation (cm)